sensor_id;sensor_type;location;lat;lon;timestamp;P1;durP1;ratioP1;P2;durP2;ratioP2
73954;SDS011;62306;52.516;13.290;2023-05-10T00:00:42;10.45;;;5.97;;
73954;SDS011;62306;52.516;13.290;2023-05-10T00:03:09;10.98;;;5.95;;
73954;SDS011;62306;52.516;13.290;2023-05-10T00:05:36;17.52;;;5.82;;
73954;SDS011;62306;52.516;13.290;2023-05-10T00:08:04;11.18;;;6.30;;
73954;SDS011;62306;52.516;13.290;2023-05-10T00:10:31;9.30;;;6.05;;
73954;SDS011;62306;52.516;13.290;2023-05-10T00:12:58;13.20;;;6.35;;
73954;SDS011;62306;52.516;13.290;2023-05-10T00:15:25;13.70;;;5.80;;
73954;SDS011;62306;52.516;13.290;2023-05-10T00:17:52;7.63;;;6.00;;
73954;SDS011;62306;52.516;13.290;2023-05-10T00:20:19;11.70;;;6.28;;
73954;SDS011;62306;52.516;13.290;2023-05-10T00:22:45;8.73;;;5.70;;
73954;SDS011;62306;52.516;13.290;2023-05-10T00:25:14;13.30;;;7.00;;
73954;SDS011;62306;52.516;13.290;2023-05-10T00:27:41;11.80;;;5.25;;
73954;SDS011;62306;52.516;13.290;2023-05-10T00:30:08;9.85;;;6.85;;
73954;SDS011;62306;52.516;13.290;2023-05-10T00:32:35;11.18;;;5.97;;
73954;SDS011;62306;52.516;13.290;2023-05-10T00:35:02;10.30;;;6.28;;
73954;SDS011;62306;52.516;13.290;2023-05-10T00:37:29;11.77;;;6.13;;
73954;SDS011;62306;52.516;13.290;2023-05-10T00:39:56;9.55;;;5.93;;
73954;SDS011;62306;52.516;13.290;2023-05-10T00:42:24;9.15;;;6.35;;
73954;SDS011;62306;52.516;13.290;2023-05-10T00:44:51;11.35;;;5.78;;
73954;SDS011;62306;52.516;13.290;2023-05-10T00:47:18;11.38;;;6.22;;
73954;SDS011;62306;52.516;13.290;2023-05-10T00:49:45;10.88;;;6.20;;
73954;SDS011;62306;52.516;13.290;2023-05-10T00:52:12;15.23;;;6.65;;
73954;SDS011;62306;52.516;13.290;2023-05-10T00:54:39;8.48;;;5.78;;
73954;SDS011;62306;52.516;13.290;2023-05-10T00:57:06;19.42;;;8.80;;
73954;SDS011;62306;52.516;13.290;2023-05-10T00:59:35;8.55;;;5.80;;
73954;SDS011;62306;52.516;13.290;2023-05-10T01:02:02;8.90;;;6.40;;
73954;SDS011;62306;52.516;13.290;2023-05-10T01:04:29;10.10;;;6.32;;
73954;SDS011;62306;52.516;13.290;2023-05-10T01:06:56;11.38;;;6.28;;
73954;SDS011;62306;52.516;13.290;2023-05-10T01:09:23;9.35;;;6.20;;
73954;SDS011;62306;52.516;13.290;2023-05-10T01:11:51;10.63;;;6.90;;
73954;SDS011;62306;52.516;13.290;2023-05-10T01:14:19;10.85;;;6.43;;
73954;SDS011;62306;52.516;13.290;2023-05-10T01:16:48;11.32;;;6.57;;
73954;SDS011;62306;52.516;13.290;2023-05-10T01:19:17;13.25;;;7.18;;
73954;SDS011;62306;52.516;13.290;2023-05-10T01:21:48;9.73;;;6.90;;
73954;SDS011;62306;52.516;13.290;2023-05-10T01:27:41;12.82;;;7.13;;
73954;SDS011;62306;52.516;13.290;2023-05-10T01:33:48;9.48;;;6.88;;
73954;SDS011;62306;52.516;13.290;2023-05-10T01:36:23;13.25;;;8.05;;
73954;SDS011;62306;52.516;13.290;2023-05-10T01:38:57;8.63;;;6.65;;
73954;SDS011;62306;52.516;13.290;2023-05-10T01:41:29;13.02;;;7.15;;
73954;SDS011;62306;52.516;13.290;2023-05-10T01:44:04;9.50;;;6.53;;
73954;SDS011;62306;52.516;13.290;2023-05-10T01:46:37;8.57;;;6.40;;
73954;SDS011;62306;52.516;13.290;2023-05-10T01:49:07;9.23;;;6.55;;
73954;SDS011;62306;52.516;13.290;2023-05-10T01:51:36;11.05;;;7.28;;
73954;SDS011;62306;52.516;13.290;2023-05-10T01:54:07;12.03;;;7.50;;
73954;SDS011;62306;52.516;13.290;2023-05-10T01:56:36;12.63;;;6.82;;
73954;SDS011;62306;52.516;13.290;2023-05-10T01:59:06;17.20;;;7.00;;
73954;SDS011;62306;52.516;13.290;2023-05-10T02:01:41;10.88;;;6.97;;
73954;SDS011;62306;52.516;13.290;2023-05-10T02:04:13;11.60;;;6.93;;
73954;SDS011;62306;52.516;13.290;2023-05-10T02:06:43;10.70;;;6.28;;
73954;SDS011;62306;52.516;13.290;2023-05-10T02:09:12;12.43;;;6.78;;
73954;SDS011;62306;52.516;13.290;2023-05-10T02:11:41;9.27;;;6.90;;
73954;SDS011;62306;52.516;13.290;2023-05-10T02:14:10;10.63;;;7.07;;
73954;SDS011;62306;52.516;13.290;2023-05-10T02:16:38;12.77;;;7.30;;
73954;SDS011;62306;52.516;13.290;2023-05-10T02:19:06;8.57;;;6.60;;
73954;SDS011;62306;52.516;13.290;2023-05-10T02:21:36;9.75;;;7.07;;
73954;SDS011;62306;52.516;13.290;2023-05-10T02:24:05;12.13;;;7.10;;
73954;SDS011;62306;52.516;13.290;2023-05-10T02:26:34;10.32;;;6.78;;
73954;SDS011;62306;52.516;13.290;2023-05-10T02:29:02;9.85;;;6.90;;
73954;SDS011;62306;52.516;13.290;2023-05-10T02:31:29;9.88;;;6.95;;
73954;SDS011;62306;52.516;13.290;2023-05-10T02:33:58;9.93;;;6.75;;
73954;SDS011;62306;52.516;13.290;2023-05-10T02:36:26;17.05;;;7.30;;
73954;SDS011;62306;52.516;13.290;2023-05-10T02:38:55;8.63;;;6.47;;
73954;SDS011;62306;52.516;13.290;2023-05-10T02:41:25;10.98;;;6.55;;
73954;SDS011;62306;52.516;13.290;2023-05-10T02:43:53;11.38;;;6.78;;
73954;SDS011;62306;52.516;13.290;2023-05-10T02:46:24;11.02;;;6.28;;
73954;SDS011;62306;52.516;13.290;2023-05-10T02:48:51;9.75;;;6.28;;
73954;SDS011;62306;52.516;13.290;2023-05-10T02:51:18;9.93;;;6.72;;
73954;SDS011;62306;52.516;13.290;2023-05-10T02:53:48;11.48;;;6.57;;
73954;SDS011;62306;52.516;13.290;2023-05-10T02:56:20;11.23;;;7.00;;
73954;SDS011;62306;52.516;13.290;2023-05-10T02:58:51;13.55;;;7.10;;
73954;SDS011;62306;52.516;13.290;2023-05-10T03:01:18;11.18;;;6.63;;
73954;SDS011;62306;52.516;13.290;2023-05-10T03:03:45;8.50;;;6.57;;
73954;SDS011;62306;52.516;13.290;2023-05-10T03:06:12;9.57;;;6.70;;
73954;SDS011;62306;52.516;13.290;2023-05-10T03:08:39;9.73;;;6.47;;
73954;SDS011;62306;52.516;13.290;2023-05-10T03:11:14;8.63;;;5.90;;
73954;SDS011;62306;52.516;13.290;2023-05-10T03:13:52;9.75;;;6.85;;
73954;SDS011;62306;52.516;13.290;2023-05-10T03:16:25;9.02;;;6.53;;
73954;SDS011;62306;52.516;13.290;2023-05-10T03:19:06;10.23;;;6.80;;
73954;SDS011;62306;52.516;13.290;2023-05-10T03:21:43;10.68;;;7.00;;
73954;SDS011;62306;52.516;13.290;2023-05-10T03:24:16;8.57;;;6.13;;
73954;SDS011;62306;52.516;13.290;2023-05-10T03:26:47;10.02;;;6.40;;
73954;SDS011;62306;52.516;13.290;2023-05-10T03:29:15;9.27;;;6.13;;
73954;SDS011;62306;52.516;13.290;2023-05-10T03:31:44;14.20;;;6.25;;
73954;SDS011;62306;52.516;13.290;2023-05-10T03:34:11;8.70;;;5.93;;
73954;SDS011;62306;52.516;13.290;2023-05-10T03:36:38;9.30;;;6.18;;
73954;SDS011;62306;52.516;13.290;2023-05-10T03:39:05;9.40;;;6.25;;
73954;SDS011;62306;52.516;13.290;2023-05-10T03:41:32;9.82;;;6.60;;
73954;SDS011;62306;52.516;13.290;2023-05-10T03:44:00;9.85;;;6.55;;
73954;SDS011;62306;52.516;13.290;2023-05-10T03:46:28;11.43;;;6.40;;
73954;SDS011;62306;52.516;13.290;2023-05-10T03:48:56;12.40;;;5.80;;
73954;SDS011;62306;52.516;13.290;2023-05-10T03:51:22;9.35;;;5.90;;
73954;SDS011;62306;52.516;13.290;2023-05-10T03:53:53;10.20;;;6.30;;
73954;SDS011;62306;52.516;13.290;2023-05-10T03:56:19;9.35;;;6.63;;
73954;SDS011;62306;52.516;13.290;2023-05-10T03:58:46;7.40;;;5.90;;
73954;SDS011;62306;52.516;13.290;2023-05-10T04:01:15;10.05;;;6.15;;
73954;SDS011;62306;52.516;13.290;2023-05-10T04:03:42;10.82;;;5.75;;
73954;SDS011;62306;52.516;13.290;2023-05-10T04:06:08;11.63;;;5.80;;
73954;SDS011;62306;52.516;13.290;2023-05-10T04:08:36;9.05;;;5.65;;
73954;SDS011;62306;52.516;13.290;2023-05-10T04:11:06;14.88;;;6.10;;
73954;SDS011;62306;52.516;13.290;2023-05-10T04:13:34;11.73;;;6.50;;
73954;SDS011;62306;52.516;13.290;2023-05-10T04:16:01;12.95;;;6.07;;
73954;SDS011;62306;52.516;13.290;2023-05-10T04:18:29;12.60;;;5.57;;
73954;SDS011;62306;52.516;13.290;2023-05-10T04:20:56;12.88;;;6.00;;
73954;SDS011;62306;52.516;13.290;2023-05-10T04:23:23;11.68;;;6.00;;
73954;SDS011;62306;52.516;13.290;2023-05-10T04:25:50;8.27;;;5.65;;
73954;SDS011;62306;52.516;13.290;2023-05-10T04:28:17;10.68;;;5.75;;
73954;SDS011;62306;52.516;13.290;2023-05-10T04:30:44;9.98;;;4.97;;
73954;SDS011;62306;52.516;13.290;2023-05-10T04:33:12;9.38;;;5.63;;
73954;SDS011;62306;52.516;13.290;2023-05-10T04:35:40;10.13;;;5.35;;
73954;SDS011;62306;52.516;13.290;2023-05-10T04:38:07;8.50;;;5.78;;
73954;SDS011;62306;52.516;13.290;2023-05-10T04:40:34;10.75;;;5.70;;
73954;SDS011;62306;52.516;13.290;2023-05-10T04:43:01;9.32;;;5.60;;
73954;SDS011;62306;52.516;13.290;2023-05-10T04:45:28;16.85;;;5.60;;
73954;SDS011;62306;52.516;13.290;2023-05-10T04:47:55;8.73;;;5.75;;
73954;SDS011;62306;52.516;13.290;2023-05-10T04:50:22;10.23;;;5.85;;
73954;SDS011;62306;52.516;13.290;2023-05-10T04:52:50;12.23;;;5.18;;
73954;SDS011;62306;52.516;13.290;2023-05-10T04:55:17;7.90;;;5.10;;
73954;SDS011;62306;52.516;13.290;2023-05-10T04:57:43;11.25;;;5.43;;
73954;SDS011;62306;52.516;13.290;2023-05-10T05:00:11;9.13;;;5.22;;
73954;SDS011;62306;52.516;13.290;2023-05-10T05:02:41;8.55;;;4.63;;
73954;SDS011;62306;52.516;13.290;2023-05-10T05:05:08;15.43;;;5.78;;
73954;SDS011;62306;52.516;13.290;2023-05-10T05:07:35;10.05;;;5.93;;
73954;SDS011;62306;52.516;13.290;2023-05-10T05:10:04;10.05;;;7.18;;
73954;SDS011;62306;52.516;13.290;2023-05-10T05:12:32;13.43;;;8.23;;
73954;SDS011;62306;52.516;13.290;2023-05-10T05:14:58;8.77;;;5.22;;
73954;SDS011;62306;52.516;13.290;2023-05-10T05:17:25;8.50;;;5.22;;
73954;SDS011;62306;52.516;13.290;2023-05-10T05:19:52;7.78;;;5.72;;
73954;SDS011;62306;52.516;13.290;2023-05-10T05:22:20;9.32;;;5.75;;
73954;SDS011;62306;52.516;13.290;2023-05-10T05:24:52;8.60;;;5.13;;
73954;SDS011;62306;52.516;13.290;2023-05-10T05:27:20;15.38;;;5.13;;
73954;SDS011;62306;52.516;13.290;2023-05-10T05:29:49;9.90;;;4.60;;
73954;SDS011;62306;52.516;13.290;2023-05-10T05:32:16;7.88;;;4.43;;
73954;SDS011;62306;52.516;13.290;2023-05-10T05:34:43;7.20;;;4.30;;
73954;SDS011;62306;52.516;13.290;2023-05-10T05:37:12;12.10;;;4.80;;
73954;SDS011;62306;52.516;13.290;2023-05-10T05:39:39;6.28;;;4.10;;
73954;SDS011;62306;52.516;13.290;2023-05-10T05:42:06;7.70;;;3.80;;
73954;SDS011;62306;52.516;13.290;2023-05-10T05:44:35;11.02;;;4.00;;
73954;SDS011;62306;52.516;13.290;2023-05-10T05:47:02;6.30;;;4.20;;
73954;SDS011;62306;52.516;13.290;2023-05-10T05:49:29;5.82;;;4.00;;
73954;SDS011;62306;52.516;13.290;2023-05-10T05:51:58;10.40;;;3.72;;
73954;SDS011;62306;52.516;13.290;2023-05-10T05:54:25;8.50;;;4.50;;
73954;SDS011;62306;52.516;13.290;2023-05-10T05:56:53;10.25;;;8.38;;
73954;SDS011;62306;52.516;13.290;2023-05-10T05:59:20;9.98;;;4.40;;
73954;SDS011;62306;52.516;13.290;2023-05-10T06:01:49;9.65;;;3.95;;
73954;SDS011;62306;52.516;13.290;2023-05-10T06:04:16;10.80;;;4.18;;
73954;SDS011;62306;52.516;13.290;2023-05-10T06:06:43;8.20;;;3.70;;
73954;SDS011;62306;52.516;13.290;2023-05-10T06:09:10;6.43;;;4.05;;
73954;SDS011;62306;52.516;13.290;2023-05-10T06:11:37;5.68;;;3.28;;
73954;SDS011;62306;52.516;13.290;2023-05-10T06:14:04;6.80;;;3.90;;
73954;SDS011;62306;52.516;13.290;2023-05-10T06:16:32;6.45;;;3.58;;
73954;SDS011;62306;52.516;13.290;2023-05-10T06:19:01;7.97;;;3.90;;
73954;SDS011;62306;52.516;13.290;2023-05-10T06:21:28;6.50;;;3.88;;
73954;SDS011;62306;52.516;13.290;2023-05-10T06:23:55;5.85;;;3.80;;
73954;SDS011;62306;52.516;13.290;2023-05-10T06:26:21;6.20;;;3.70;;
73954;SDS011;62306;52.516;13.290;2023-05-10T06:28:48;7.32;;;3.60;;
73954;SDS011;62306;52.516;13.290;2023-05-10T06:31:15;8.98;;;3.28;;
73954;SDS011;62306;52.516;13.290;2023-05-10T06:33:42;8.00;;;3.47;;
73954;SDS011;62306;52.516;13.290;2023-05-10T06:36:11;9.35;;;3.42;;
73954;SDS011;62306;52.516;13.290;2023-05-10T06:38:38;4.47;;;3.05;;
73954;SDS011;62306;52.516;13.290;2023-05-10T06:41:05;6.28;;;3.42;;
73954;SDS011;62306;52.516;13.290;2023-05-10T06:43:32;5.47;;;3.20;;
73954;SDS011;62306;52.516;13.290;2023-05-10T06:45:59;7.63;;;3.45;;
73954;SDS011;62306;52.516;13.290;2023-05-10T06:48:26;5.70;;;3.20;;
73954;SDS011;62306;52.516;13.290;2023-05-10T06:50:53;3.42;;;2.72;;
73954;SDS011;62306;52.516;13.290;2023-05-10T06:53:21;7.80;;;3.03;;
73954;SDS011;62306;52.516;13.290;2023-05-10T06:55:48;6.97;;;2.85;;
73954;SDS011;62306;52.516;13.290;2023-05-10T06:58:16;4.63;;;2.60;;
73954;SDS011;62306;52.516;13.290;2023-05-10T07:00:43;8.27;;;2.80;;
73954;SDS011;62306;52.516;13.290;2023-05-10T07:03:10;12.40;;;6.78;;
73954;SDS011;62306;52.516;13.290;2023-05-10T07:05:37;6.95;;;3.65;;
73954;SDS011;62306;52.516;13.290;2023-05-10T07:08:04;6.55;;;3.28;;
73954;SDS011;62306;52.516;13.290;2023-05-10T07:10:32;10.90;;;3.95;;
73954;SDS011;62306;52.516;13.290;2023-05-10T07:12:59;9.40;;;3.30;;
73954;SDS011;62306;52.516;13.290;2023-05-10T07:15:26;5.45;;;2.83;;
73954;SDS011;62306;52.516;13.290;2023-05-10T07:17:53;5.50;;;3.00;;
73954;SDS011;62306;52.516;13.290;2023-05-10T07:20:20;8.95;;;2.95;;
73954;SDS011;62306;52.516;13.290;2023-05-10T07:22:47;6.15;;;3.50;;
73954;SDS011;62306;52.516;13.290;2023-05-10T07:25:14;5.95;;;2.85;;
73954;SDS011;62306;52.516;13.290;2023-05-10T07:27:42;7.40;;;3.45;;
73954;SDS011;62306;52.516;13.290;2023-05-10T07:30:09;4.05;;;2.88;;
73954;SDS011;62306;52.516;13.290;2023-05-10T07:32:37;6.10;;;3.25;;
73954;SDS011;62306;52.516;13.290;2023-05-10T07:35:04;8.07;;;3.35;;
73954;SDS011;62306;52.516;13.290;2023-05-10T07:37:31;6.22;;;3.15;;
73954;SDS011;62306;52.516;13.290;2023-05-10T07:39:58;4.07;;;2.92;;
73954;SDS011;62306;52.516;13.290;2023-05-10T07:42:25;9.32;;;2.88;;
73954;SDS011;62306;52.516;13.290;2023-05-10T07:44:54;7.25;;;3.40;;
73954;SDS011;62306;52.516;13.290;2023-05-10T07:47:20;4.72;;;3.30;;
73954;SDS011;62306;52.516;13.290;2023-05-10T07:49:48;11.23;;;3.15;;
73954;SDS011;62306;52.516;13.290;2023-05-10T07:52:15;8.73;;;3.60;;
73954;SDS011;62306;52.516;13.290;2023-05-10T07:54:42;7.38;;;3.35;;
73954;SDS011;62306;52.516;13.290;2023-05-10T07:57:09;4.75;;;3.13;;
73954;SDS011;62306;52.516;13.290;2023-05-10T07:59:36;5.22;;;2.92;;
73954;SDS011;62306;52.516;13.290;2023-05-10T08:02:04;11.27;;;2.70;;
73954;SDS011;62306;52.516;13.290;2023-05-10T08:04:32;3.25;;;2.90;;
73954;SDS011;62306;52.516;13.290;2023-05-10T08:06:58;4.90;;;2.53;;
73954;SDS011;62306;52.516;13.290;2023-05-10T08:09:25;8.48;;;3.20;;
73954;SDS011;62306;52.516;13.290;2023-05-10T08:11:52;9.02;;;3.72;;
73954;SDS011;62306;52.516;13.290;2023-05-10T08:14:19;6.22;;;2.80;;
73954;SDS011;62306;52.516;13.290;2023-05-10T08:16:46;6.63;;;3.22;;
73954;SDS011;62306;52.516;13.290;2023-05-10T08:19:14;5.25;;;2.90;;
73954;SDS011;62306;52.516;13.290;2023-05-10T08:21:44;7.78;;;3.05;;
73954;SDS011;62306;52.516;13.290;2023-05-10T08:24:10;11.90;;;2.55;;
73954;SDS011;62306;52.516;13.290;2023-05-10T08:26:37;6.57;;;3.30;;
73954;SDS011;62306;52.516;13.290;2023-05-10T08:29:05;11.85;;;5.47;;
73954;SDS011;62306;52.516;13.290;2023-05-10T08:31:32;7.72;;;3.70;;
73954;SDS011;62306;52.516;13.290;2023-05-10T08:33:58;3.03;;;2.55;;
73954;SDS011;62306;52.516;13.290;2023-05-10T08:36:27;5.00;;;2.88;;
73954;SDS011;62306;52.516;13.290;2023-05-10T08:38:54;7.38;;;3.10;;
73954;SDS011;62306;52.516;13.290;2023-05-10T08:41:22;9.85;;;2.83;;
73954;SDS011;62306;52.516;13.290;2023-05-10T08:43:50;3.80;;;2.95;;
73954;SDS011;62306;52.516;13.290;2023-05-10T08:46:19;3.53;;;2.67;;
73954;SDS011;62306;52.516;13.290;2023-05-10T08:48:47;3.88;;;2.90;;
73954;SDS011;62306;52.516;13.290;2023-05-10T08:51:17;8.77;;;3.03;;
73954;SDS011;62306;52.516;13.290;2023-05-10T08:53:46;4.65;;;2.60;;
73954;SDS011;62306;52.516;13.290;2023-05-10T08:56:13;6.95;;;2.92;;
73954;SDS011;62306;52.516;13.290;2023-05-10T08:58:42;5.95;;;2.78;;
73954;SDS011;62306;52.516;13.290;2023-05-10T09:01:10;6.78;;;2.80;;
73954;SDS011;62306;52.516;13.290;2023-05-10T09:03:38;4.85;;;3.00;;
73954;SDS011;62306;52.516;13.290;2023-05-10T09:06:06;8.98;;;3.13;;
73954;SDS011;62306;52.516;13.290;2023-05-10T09:08:33;4.03;;;3.17;;
73954;SDS011;62306;52.516;13.290;2023-05-10T09:11:01;8.70;;;3.20;;
73954;SDS011;62306;52.516;13.290;2023-05-10T09:13:28;5.07;;;3.08;;
73954;SDS011;62306;52.516;13.290;2023-05-10T09:15:56;9.88;;;4.97;;
73954;SDS011;62306;52.516;13.290;2023-05-10T09:18:23;12.02;;;5.50;;
73954;SDS011;62306;52.516;13.290;2023-05-10T09:20:50;9.30;;;3.47;;
73954;SDS011;62306;52.516;13.290;2023-05-10T09:23:17;4.72;;;2.67;;
73954;SDS011;62306;52.516;13.290;2023-05-10T09:25:44;4.55;;;2.90;;
73954;SDS011;62306;52.516;13.290;2023-05-10T09:28:13;6.82;;;3.15;;
73954;SDS011;62306;52.516;13.290;2023-05-10T09:30:40;3.33;;;2.85;;
73954;SDS011;62306;52.516;13.290;2023-05-10T09:33:08;14.82;;;3.53;;
73954;SDS011;62306;52.516;13.290;2023-05-10T09:35:34;5.28;;;3.20;;
73954;SDS011;62306;52.516;13.290;2023-05-10T09:38:02;5.57;;;2.90;;
73954;SDS011;62306;52.516;13.290;2023-05-10T09:40:30;12.25;;;3.13;;
73954;SDS011;62306;52.516;13.290;2023-05-10T09:42:59;7.50;;;2.88;;
73954;SDS011;62306;52.516;13.290;2023-05-10T09:45:28;7.78;;;2.90;;
73954;SDS011;62306;52.516;13.290;2023-05-10T09:47:57;9.02;;;6.63;;
73954;SDS011;62306;52.516;13.290;2023-05-10T09:50:25;14.48;;;7.55;;
73954;SDS011;62306;52.516;13.290;2023-05-10T09:52:53;11.82;;;3.40;;
73954;SDS011;62306;52.516;13.290;2023-05-10T09:55:23;6.32;;;3.20;;
73954;SDS011;62306;52.516;13.290;2023-05-10T09:57:58;5.20;;;2.70;;
73954;SDS011;62306;52.516;13.290;2023-05-10T10:00:26;7.55;;;2.80;;
73954;SDS011;62306;52.516;13.290;2023-05-10T10:02:55;5.85;;;3.00;;
73954;SDS011;62306;52.516;13.290;2023-05-10T10:05:27;4.30;;;3.00;;
73954;SDS011;62306;52.516;13.290;2023-05-10T10:07:55;5.95;;;2.88;;
73954;SDS011;62306;52.516;13.290;2023-05-10T10:10:23;9.18;;;4.13;;
73954;SDS011;62306;52.516;13.290;2023-05-10T10:12:50;3.75;;;2.78;;
73954;SDS011;62306;52.516;13.290;2023-05-10T10:15:18;7.05;;;2.75;;
73954;SDS011;62306;52.516;13.290;2023-05-10T10:17:46;5.53;;;2.90;;
73954;SDS011;62306;52.516;13.290;2023-05-10T10:20:15;7.53;;;3.13;;
73954;SDS011;62306;52.516;13.290;2023-05-10T10:22:43;7.68;;;2.90;;
73954;SDS011;62306;52.516;13.290;2023-05-10T10:25:11;6.43;;;3.10;;
73954;SDS011;62306;52.516;13.290;2023-05-10T10:27:42;5.03;;;2.83;;
73954;SDS011;62306;52.516;13.290;2023-05-10T10:30:19;7.10;;;3.40;;
73954;SDS011;62306;52.516;13.290;2023-05-10T10:32:59;4.30;;;2.58;;
73954;SDS011;62306;52.516;13.290;2023-05-10T10:35:36;4.13;;;3.20;;
73954;SDS011;62306;52.516;13.290;2023-05-10T10:38:03;7.53;;;3.33;;
73954;SDS011;62306;52.516;13.290;2023-05-10T10:40:30;10.40;;;4.00;;
73954;SDS011;62306;52.516;13.290;2023-05-10T10:43:20;3.35;;;2.85;;
73954;SDS011;62306;52.516;13.290;2023-05-10T10:46:10;6.18;;;3.90;;
73954;SDS011;62306;52.516;13.290;2023-05-10T10:48:39;5.82;;;3.00;;
73954;SDS011;62306;52.516;13.290;2023-05-10T10:51:07;6.03;;;2.80;;
73954;SDS011;62306;52.516;13.290;2023-05-10T10:53:34;7.57;;;3.45;;
73954;SDS011;62306;52.516;13.290;2023-05-10T10:56:07;6.80;;;2.80;;
73954;SDS011;62306;52.516;13.290;2023-05-10T10:58:36;11.20;;;3.00;;
73954;SDS011;62306;52.516;13.290;2023-05-10T11:01:11;8.15;;;3.22;;
73954;SDS011;62306;52.516;13.290;2023-05-10T11:03:39;5.70;;;2.78;;
73954;SDS011;62306;52.516;13.290;2023-05-10T11:06:08;11.50;;;2.90;;
73954;SDS011;62306;52.516;13.290;2023-05-10T11:08:40;8.93;;;3.40;;
73954;SDS011;62306;52.516;13.290;2023-05-10T11:11:09;4.35;;;2.88;;
73954;SDS011;62306;52.516;13.290;2023-05-10T11:13:40;13.55;;;3.25;;
73954;SDS011;62306;52.516;13.290;2023-05-10T11:16:12;5.60;;;2.88;;
73954;SDS011;62306;52.516;13.290;2023-05-10T11:18:40;4.15;;;2.65;;
73954;SDS011;62306;52.516;13.290;2023-05-10T11:21:19;9.25;;;4.40;;
73954;SDS011;62306;52.516;13.290;2023-05-10T11:23:50;5.63;;;3.72;;
73954;SDS011;62306;52.516;13.290;2023-05-10T11:26:21;6.28;;;2.75;;
73954;SDS011;62306;52.516;13.290;2023-05-10T11:28:51;4.75;;;2.97;;
73954;SDS011;62306;52.516;13.290;2023-05-10T11:31:21;10.95;;;3.00;;
73954;SDS011;62306;52.516;13.290;2023-05-10T11:33:51;3.30;;;2.90;;
73954;SDS011;62306;52.516;13.290;2023-05-10T11:36:23;4.88;;;3.10;;
73954;SDS011;62306;52.516;13.290;2023-05-10T11:38:51;7.03;;;2.80;;
73954;SDS011;62306;52.516;13.290;2023-05-10T11:41:18;3.55;;;2.38;;
73954;SDS011;62306;52.516;13.290;2023-05-10T11:43:49;7.85;;;2.80;;
73954;SDS011;62306;52.516;13.290;2023-05-10T11:46:18;6.50;;;2.50;;
73954;SDS011;62306;52.516;13.290;2023-05-10T11:48:46;8.77;;;3.20;;
73954;SDS011;62306;52.516;13.290;2023-05-10T11:51:15;7.13;;;2.58;;
73954;SDS011;62306;52.516;13.290;2023-05-10T11:53:48;6.45;;;2.67;;
73954;SDS011;62306;52.516;13.290;2023-05-10T11:56:16;4.35;;;3.17;;
73954;SDS011;62306;52.516;13.290;2023-05-10T11:58:43;14.00;;;3.45;;
73954;SDS011;62306;52.516;13.290;2023-05-10T12:01:12;7.40;;;2.80;;
73954;SDS011;62306;52.516;13.290;2023-05-10T12:03:39;13.10;;;3.00;;
73954;SDS011;62306;52.516;13.290;2023-05-10T12:06:07;4.85;;;2.72;;
73954;SDS011;62306;52.516;13.290;2023-05-10T12:08:34;13.93;;;2.85;;
73954;SDS011;62306;52.516;13.290;2023-05-10T12:11:06;8.00;;;2.65;;
73954;SDS011;62306;52.516;13.290;2023-05-10T12:13:37;7.80;;;2.78;;
73954;SDS011;62306;52.516;13.290;2023-05-10T12:16:15;8.45;;;2.60;;
73954;SDS011;62306;52.516;13.290;2023-05-10T12:18:43;6.55;;;2.97;;
73954;SDS011;62306;52.516;13.290;2023-05-10T12:21:10;7.30;;;2.90;;
73954;SDS011;62306;52.516;13.290;2023-05-10T12:23:38;2.60;;;2.40;;
73954;SDS011;62306;52.516;13.290;2023-05-10T12:26:07;12.32;;;2.63;;
73954;SDS011;62306;52.516;13.290;2023-05-10T12:28:36;7.50;;;2.70;;
73954;SDS011;62306;52.516;13.290;2023-05-10T12:31:04;6.28;;;3.05;;
73954;SDS011;62306;52.516;13.290;2023-05-10T12:33:35;8.10;;;3.17;;
73954;SDS011;62306;52.516;13.290;2023-05-10T12:36:04;3.93;;;2.67;;
73954;SDS011;62306;52.516;13.290;2023-05-10T12:38:32;10.60;;;7.05;;
73954;SDS011;62306;52.516;13.290;2023-05-10T12:41:02;5.75;;;2.85;;
73954;SDS011;62306;52.516;13.290;2023-05-10T12:43:32;3.13;;;2.55;;
73954;SDS011;62306;52.516;13.290;2023-05-10T12:46:03;3.97;;;3.15;;
73954;SDS011;62306;52.516;13.290;2023-05-10T12:48:31;7.07;;;2.50;;
73954;SDS011;62306;52.516;13.290;2023-05-10T12:50:59;5.32;;;3.58;;
73954;SDS011;62306;52.516;13.290;2023-05-10T12:53:26;6.55;;;2.53;;
73954;SDS011;62306;52.516;13.290;2023-05-10T12:55:53;6.05;;;2.80;;
73954;SDS011;62306;52.516;13.290;2023-05-10T12:58:19;8.27;;;2.47;;
73954;SDS011;62306;52.516;13.290;2023-05-10T13:00:48;6.15;;;2.45;;
73954;SDS011;62306;52.516;13.290;2023-05-10T13:03:16;5.38;;;2.70;;
73954;SDS011;62306;52.516;13.290;2023-05-10T13:05:43;3.85;;;2.70;;
73954;SDS011;62306;52.516;13.290;2023-05-10T13:08:10;4.50;;;2.75;;
73954;SDS011;62306;52.516;13.290;2023-05-10T13:10:37;11.20;;;3.17;;
73954;SDS011;62306;52.516;13.290;2023-05-10T13:13:04;2.72;;;2.40;;
73954;SDS011;62306;52.516;13.290;2023-05-10T13:15:32;4.25;;;2.67;;
73954;SDS011;62306;52.516;13.290;2023-05-10T13:18:00;7.05;;;3.10;;
73954;SDS011;62306;52.516;13.290;2023-05-10T13:20:27;5.38;;;2.53;;
73954;SDS011;62306;52.516;13.290;2023-05-10T13:22:54;7.68;;;3.00;;
73954;SDS011;62306;52.516;13.290;2023-05-10T13:25:21;2.92;;;2.45;;
73954;SDS011;62306;52.516;13.290;2023-05-10T13:27:48;5.07;;;2.50;;
73954;SDS011;62306;52.516;13.290;2023-05-10T13:30:15;8.20;;;3.25;;
73954;SDS011;62306;52.516;13.290;2023-05-10T13:32:42;2.92;;;2.30;;
73954;SDS011;62306;52.516;13.290;2023-05-10T13:35:11;7.10;;;3.15;;
73954;SDS011;62306;52.516;13.290;2023-05-10T13:37:38;11.75;;;3.05;;
73954;SDS011;62306;52.516;13.290;2023-05-10T13:40:05;4.07;;;2.80;;
73954;SDS011;62306;52.516;13.290;2023-05-10T13:42:33;14.18;;;3.03;;
73954;SDS011;62306;52.516;13.290;2023-05-10T13:45:00;12.15;;;4.05;;
73954;SDS011;62306;52.516;13.290;2023-05-10T13:47:28;6.45;;;4.10;;
73954;SDS011;62306;52.516;13.290;2023-05-10T13:49:55;6.45;;;2.88;;
73954;SDS011;62306;52.516;13.290;2023-05-10T13:52:24;8.10;;;2.90;;
73954;SDS011;62306;52.516;13.290;2023-05-10T13:54:51;5.65;;;2.50;;
73954;SDS011;62306;52.516;13.290;2023-05-10T13:57:19;4.97;;;2.95;;
73954;SDS011;62306;52.516;13.290;2023-05-10T13:59:47;6.45;;;2.50;;
73954;SDS011;62306;52.516;13.290;2023-05-10T14:02:14;3.58;;;2.65;;
73954;SDS011;62306;52.516;13.290;2023-05-10T14:04:40;8.32;;;3.95;;
73954;SDS011;62306;52.516;13.290;2023-05-10T14:07:07;6.57;;;3.00;;
73954;SDS011;62306;52.516;13.290;2023-05-10T14:09:36;4.78;;;2.45;;
73954;SDS011;62306;52.516;13.290;2023-05-10T14:12:03;4.15;;;2.80;;
73954;SDS011;62306;52.516;13.290;2023-05-10T14:14:30;8.13;;;2.75;;
73954;SDS011;62306;52.516;13.290;2023-05-10T14:16:57;4.43;;;2.22;;
73954;SDS011;62306;52.516;13.290;2023-05-10T14:19:24;4.40;;;2.15;;
73954;SDS011;62306;52.516;13.290;2023-05-10T14:21:51;7.05;;;3.55;;
73954;SDS011;62306;52.516;13.290;2023-05-10T14:24:18;4.35;;;2.53;;
73954;SDS011;62306;52.516;13.290;2023-05-10T14:26:47;2.97;;;2.42;;
73954;SDS011;62306;52.516;13.290;2023-05-10T14:29:13;3.83;;;2.80;;
73954;SDS011;62306;52.516;13.290;2023-05-10T14:31:41;6.22;;;2.65;;
73954;SDS011;62306;52.516;13.290;2023-05-10T14:34:08;10.13;;;2.67;;
73954;SDS011;62306;52.516;13.290;2023-05-10T14:36:35;3.92;;;2.55;;
73954;SDS011;62306;52.516;13.290;2023-05-10T14:39:02;6.22;;;2.80;;
73954;SDS011;62306;52.516;13.290;2023-05-10T14:41:29;5.18;;;2.72;;
73954;SDS011;62306;52.516;13.290;2023-05-10T14:43:57;3.67;;;2.72;;